sensor_id;sensor_type;location;lat;lon;timestamp;pressure;altitude;pressure_sealevel;temperature;humidity
65384;BME280;51986;52.788;41.368;2022-09-30T00:00:52;99363.19;;;12.10;68.32
65384;BME280;51986;52.788;41.368;2022-09-30T00:03:19;99396.84;;;12.09;68.56
65384;BME280;51986;52.788;41.368;2022-09-30T00:05:46;99367.28;;;12.15;67.69
65384;BME280;51986;52.788;41.368;2022-09-30T00:08:13;99389.56;;;12.17;67.66
65384;BME280;51986;52.788;41.368;2022-09-30T00:10:40;99375.31;;;12.11;67.42
65384;BME280;51986;52.788;41.368;2022-09-30T00:13:06;99387.53;;;12.01;68.09
65384;BME280;51986;52.788;41.368;2022-09-30T00:15:33;99381.81;;;12.03;68.21
65384;BME280;51986;52.788;41.368;2022-09-30T00:18:00;99381.97;;;11.92;68.24
65384;BME280;51986;52.788;41.368;2022-09-30T00:20:27;99375.75;;;12.06;67.65
65384;BME280;51986;52.788;41.368;2022-09-30T00:22:56;99386.91;;;12.17;67.93
65384;BME280;51986;52.788;41.368;2022-09-30T00:25:23;99391.34;;;12.24;66.95
65384;BME280;51986;52.788;41.368;2022-09-30T00:27:50;99393.44;;;12.09;67.26
65384;BME280;51986;52.788;41.368;2022-09-30T00:30:17;99385.16;;;12.07;67.59
65384;BME280;51986;52.788;41.368;2022-09-30T00:32:44;99358.06;;;11.99;67.43
65384;BME280;51986;52.788;41.368;2022-09-30T00:35:10;99375.78;;;12.02;67.80
65384;BME280;51986;52.788;41.368;2022-09-30T00:37:37;99387.66;;;12.18;66.99
65384;BME280;51986;52.788;41.368;2022-09-30T00:40:04;99412.91;;;12.22;67.03
65384;BME280;51986;52.788;41.368;2022-09-30T00:42:32;99409.13;;;12.23;67.38
65384;BME280;51986;52.788;41.368;2022-09-30T00:45:07;99389.97;;;12.16;67.21
65384;BME280;51986;52.788;41.368;2022-09-30T00:50:18;99395.88;;;12.23;66.73
65384;BME280;51986;52.788;41.368;2022-09-30T00:52:51;99396.38;;;12.15;66.64
65384;BME280;51986;52.788;41.368;2022-09-30T00:55:51;99399.97;;;12.28;66.93
65384;BME280;51986;52.788;41.368;2022-09-30T00:58:27;99419.84;;;12.13;66.49
65384;BME280;51986;52.788;41.368;2022-09-30T01:01:00;99413.13;;;12.04;66.90
65384;BME280;51986;52.788;41.368;2022-09-30T01:03:34;99403.38;;;12.01;67.11
65384;BME280;51986;52.788;41.368;2022-09-30T01:06:22;99406.81;;;11.98;67.71
65384;BME280;51986;52.788;41.368;2022-09-30T01:08:50;99391.72;;;11.95;67.09
65384;BME280;51986;52.788;41.368;2022-09-30T01:11:17;99406.47;;;11.96;67.34
65384;BME280;51986;52.788;41.368;2022-09-30T01:13:47;99403.38;;;12.01;67.00
65384;BME280;51986;52.788;41.368;2022-09-30T01:27:46;99408.63;;;11.71;67.97
65384;BME280;51986;52.788;41.368;2022-09-30T01:36:04;99428.72;;;11.65;68.61
65384;BME280;51986;52.788;41.368;2022-09-30T01:39:28;99424.56;;;11.64;68.87
65384;BME280;51986;52.788;41.368;2022-09-30T01:42:31;99456.78;;;11.51;69.32
65384;BME280;51986;52.788;41.368;2022-09-30T01:45:09;99427.72;;;11.51;68.77
65384;BME280;51986;52.788;41.368;2022-09-30T01:50:42;99421.53;;;11.65;68.49
65384;BME280;51986;52.788;41.368;2022-09-30T01:56:00;99447.63;;;11.59;68.57
65384;BME280;51986;52.788;41.368;2022-09-30T01:58:51;99442.97;;;11.71;68.57
65384;BME280;51986;52.788;41.368;2022-09-30T02:01:27;99427.22;;;11.64;68.14
65384;BME280;51986;52.788;41.368;2022-09-30T02:03:58;99424.50;;;11.67;67.77
65384;BME280;51986;52.788;41.368;2022-09-30T02:06:35;99441.84;;;11.72;67.73
65384;BME280;51986;52.788;41.368;2022-09-30T02:09:50;99450.28;;;11.94;67.19
65384;BME280;51986;52.788;41.368;2022-09-30T02:12:01;99448.13;;;11.85;67.08
65384;BME280;51986;52.788;41.368;2022-09-30T02:14:40;99440.50;;;11.91;67.08
65384;BME280;51986;52.788;41.368;2022-09-30T02:17:45;99450.69;;;11.92;67.05
65384;BME280;51986;52.788;41.368;2022-09-30T02:20:23;99442.88;;;11.81;66.97
65384;BME280;51986;52.788;41.368;2022-09-30T02:23:01;99452.34;;;11.79;67.10
65384;BME280;51986;52.788;41.368;2022-09-30T02:25:32;99431.56;;;11.81;66.48
65384;BME280;51986;52.788;41.368;2022-09-30T02:28:06;99450.56;;;11.69;67.29
65384;BME280;51986;52.788;41.368;2022-09-30T02:30:36;99437.66;;;11.78;67.27
65384;BME280;51986;52.788;41.368;2022-09-30T02:36:33;99479.19;;;11.77;67.25
65384;BME280;51986;52.788;41.368;2022-09-30T02:39:11;99462.50;;;11.84;67.26
65384;BME280;51986;52.788;41.368;2022-09-30T02:41:47;99450.91;;;11.71;67.18
65384;BME280;51986;52.788;41.368;2022-09-30T02:44:15;99450.63;;;11.62;66.92
65384;BME280;51986;52.788;41.368;2022-09-30T02:49:29;99461.91;;;11.66;67.22
65384;BME280;51986;52.788;41.368;2022-09-30T03:00:25;99466.63;;;11.47;68.29
65384;BME280;51986;52.788;41.368;2022-09-30T03:02:57;99462.44;;;11.53;68.14
65384;BME280;51986;52.788;41.368;2022-09-30T03:05:26;99451.06;;;11.56;68.06
65384;BME280;51986;52.788;41.368;2022-09-30T03:07:54;99436.00;;;11.53;67.28
65384;BME280;51986;52.788;41.368;2022-09-30T03:10:21;99447.81;;;11.42;68.25
65384;BME280;51986;52.788;41.368;2022-09-30T03:16:03;99454.72;;;11.66;67.68
65384;BME280;51986;52.788;41.368;2022-09-30T03:29:45;99459.34;;;11.96;66.51
65384;BME280;51986;52.788;41.368;2022-09-30T03:35:03;99467.78;;;11.84;66.92
65384;BME280;51986;52.788;41.368;2022-09-30T03:37:50;99456.19;;;11.74;67.20
65384;BME280;51986;52.788;41.368;2022-09-30T03:40:42;99482.78;;;11.91;67.34
65384;BME280;51986;52.788;41.368;2022-09-30T03:43:33;99478.63;;;11.93;66.55
65384;BME280;51986;52.788;41.368;2022-09-30T03:48:35;99467.00;;;11.87;67.55
65384;BME280;51986;52.788;41.368;2022-09-30T03:51:04;99473.25;;;12.00;67.02
65384;BME280;51986;52.788;41.368;2022-09-30T03:53:38;99455.59;;;11.94;66.79
65384;BME280;51986;52.788;41.368;2022-09-30T03:56:05;99484.66;;;11.94;66.99
65384;BME280;51986;52.788;41.368;2022-09-30T03:58:33;99487.91;;;12.05;66.58
65384;BME280;51986;52.788;41.368;2022-09-30T04:01:02;99501.06;;;11.78;67.87
65384;BME280;51986;52.788;41.368;2022-09-30T04:03:29;99513.00;;;11.93;67.51
65384;BME280;51986;52.788;41.368;2022-09-30T04:05:56;99501.31;;;11.91;67.39
65384;BME280;51986;52.788;41.368;2022-09-30T04:08:23;99506.03;;;12.06;67.17
65384;BME280;51986;52.788;41.368;2022-09-30T04:10:52;99492.00;;;11.79;68.11
65384;BME280;51986;52.788;41.368;2022-09-30T04:13:19;99513.06;;;11.86;67.49
65384;BME280;51986;52.788;41.368;2022-09-30T04:15:52;99520.59;;;11.88;67.59
65384;BME280;51986;52.788;41.368;2022-09-30T04:18:19;99516.66;;;12.03;66.82
65384;BME280;51986;52.788;41.368;2022-09-30T04:20:46;99526.47;;;12.06;66.51
65384;BME280;51986;52.788;41.368;2022-09-30T04:23:13;99517.00;;;12.05;66.46
65384;BME280;51986;52.788;41.368;2022-09-30T04:25:40;99527.97;;;12.03;66.70
65384;BME280;51986;52.788;41.368;2022-09-30T04:28:07;99506.13;;;11.99;66.93
65384;BME280;51986;52.788;41.368;2022-09-30T04:30:36;99527.94;;;12.07;66.35
65384;BME280;51986;52.788;41.368;2022-09-30T04:33:03;99523.09;;;12.02;66.47
65384;BME280;51986;52.788;41.368;2022-09-30T04:35:30;99548.63;;;12.16;66.19
65384;BME280;51986;52.788;41.368;2022-09-30T04:37:57;99527.53;;;12.08;66.41
65384;BME280;51986;52.788;41.368;2022-09-30T04:40:24;99534.56;;;12.22;66.15
65384;BME280;51986;52.788;41.368;2022-09-30T04:42:55;99529.41;;;12.12;66.77
65384;BME280;51986;52.788;41.368;2022-09-30T04:45:22;99537.56;;;12.24;66.25
65384;BME280;51986;52.788;41.368;2022-09-30T04:47:49;99534.22;;;12.20;66.64
65384;BME280;51986;52.788;41.368;2022-09-30T04:50:16;99552.22;;;12.29;66.53
65384;BME280;51986;52.788;41.368;2022-09-30T04:52:43;99545.00;;;12.33;66.14
65384;BME280;51986;52.788;41.368;2022-09-30T04:55:10;99537.38;;;12.39;66.08
65384;BME280;51986;52.788;41.368;2022-09-30T04:57:37;99554.72;;;12.43;65.71
65384;BME280;51986;52.788;41.368;2022-09-30T05:00:04;99546.69;;;12.50;65.95
65384;BME280;51986;52.788;41.368;2022-09-30T05:02:31;99544.84;;;12.47;66.20
65384;BME280;51986;52.788;41.368;2022-09-30T05:04:58;99543.94;;;12.57;66.04
65384;BME280;51986;52.788;41.368;2022-09-30T05:07:25;99565.84;;;12.58;66.09
65384;BME280;51986;52.788;41.368;2022-09-30T05:09:52;99562.97;;;12.76;65.64
65384;BME280;51986;52.788;41.368;2022-09-30T05:12:19;99550.41;;;12.83;65.20
65384;BME280;51986;52.788;41.368;2022-09-30T05:14:48;99562.56;;;12.77;65.91
65384;BME280;51986;52.788;41.368;2022-09-30T05:17:15;99539.06;;;12.83;65.78
65384;BME280;51986;52.788;41.368;2022-09-30T05:19:41;99543.78;;;12.99;64.98
65384;BME280;51986;52.788;41.368;2022-09-30T05:22:08;99545.63;;;13.02;65.22
65384;BME280;51986;52.788;41.368;2022-09-30T05:24:35;99569.41;;;13.29;64.63
65384;BME280;51986;52.788;41.368;2022-09-30T05:27:02;99556.34;;;13.42;64.08
65384;BME280;51986;52.788;41.368;2022-09-30T05:29:29;99551.81;;;13.42;63.86
65384;BME280;51986;52.788;41.368;2022-09-30T05:31:56;99560.72;;;13.52;63.87
65384;BME280;51986;52.788;41.368;2022-09-30T05:34:23;99561.66;;;13.65;63.29
65384;BME280;51986;52.788;41.368;2022-09-30T05:36:50;99555.81;;;13.74;63.15
65384;BME280;51986;52.788;41.368;2022-09-30T05:39:17;99574.25;;;13.81;62.72
65384;BME280;51986;52.788;41.368;2022-09-30T05:41:43;99573.97;;;13.95;62.75
65384;BME280;51986;52.788;41.368;2022-09-30T05:44:10;99570.25;;;14.12;61.63
65384;BME280;51986;52.788;41.368;2022-09-30T05:46:37;99570.75;;;14.27;61.78
65384;BME280;51986;52.788;41.368;2022-09-30T05:49:04;99575.34;;;14.43;61.51
65384;BME280;51986;52.788;41.368;2022-09-30T05:51:31;99570.09;;;14.59;61.27
65384;BME280;51986;52.788;41.368;2022-09-30T05:53:58;99557.78;;;14.49;61.17
65384;BME280;51986;52.788;41.368;2022-09-30T05:56:24;99581.66;;;14.49;61.40
65384;BME280;51986;52.788;41.368;2022-09-30T05:58:52;99570.13;;;14.39;61.46
65384;BME280;51986;52.788;41.368;2022-09-30T06:01:18;99583.59;;;14.49;61.38
65384;BME280;51986;52.788;41.368;2022-09-30T06:03:46;99576.38;;;14.49;61.11
65384;BME280;51986;52.788;41.368;2022-09-30T06:06:14;99581.00;;;14.45;61.09
65384;BME280;51986;52.788;41.368;2022-09-30T06:08:42;99575.69;;;14.45;61.34
65384;BME280;51986;52.788;41.368;2022-09-30T06:11:14;99570.66;;;14.51;61.43
65384;BME280;51986;52.788;41.368;2022-09-30T06:13:42;99576.75;;;14.67;61.36
65384;BME280;51986;52.788;41.368;2022-09-30T06:16:10;99577.31;;;14.59;61.23
65384;BME280;51986;52.788;41.368;2022-09-30T06:18:38;99564.63;;;14.66;61.13
65384;BME280;51986;52.788;41.368;2022-09-30T06:21:05;99588.84;;;14.69;61.33
65384;BME280;51986;52.788;41.368;2022-09-30T06:23:32;99585.22;;;14.79;61.10
65384;BME280;51986;52.788;41.368;2022-09-30T06:25:59;99584.56;;;14.75;61.36
65384;BME280;51986;52.788;41.368;2022-09-30T06:28:27;99571.31;;;14.91;61.20
65384;BME280;51986;52.788;41.368;2022-09-30T06:30:54;99566.31;;;14.93;60.62
65384;BME280;51986;52.788;41.368;2022-09-30T06:33:28;99596.72;;;15.08;60.42
65384;BME280;51986;52.788;41.368;2022-09-30T06:35:55;99579.56;;;15.29;59.21
65384;BME280;51986;52.788;41.368;2022-09-30T06:38:22;99584.63;;;15.24;59.38
65384;BME280;51986;52.788;41.368;2022-09-30T06:40:49;99597.94;;;15.24;59.57
65384;BME280;51986;52.788;41.368;2022-09-30T06:43:19;99613.91;;;15.69;59.11
65384;BME280;51986;52.788;41.368;2022-09-30T06:45:47;99581.53;;;15.58;58.59
65384;BME280;51986;52.788;41.368;2022-09-30T06:48:15;99604.84;;;15.83;58.38
65384;BME280;51986;52.788;41.368;2022-09-30T06:50:57;99606.00;;;16.11;58.12
65384;BME280;51986;52.788;41.368;2022-09-30T06:53:28;99586.09;;;16.44;57.16
65384;BME280;51986;52.788;41.368;2022-09-30T06:55:56;99608.06;;;16.74;56.04
65384;BME280;51986;52.788;41.368;2022-09-30T06:58:23;99561.50;;;16.53;56.62
65384;BME280;51986;52.788;41.368;2022-09-30T07:01:01;99600.50;;;16.73;56.44
65384;BME280;51986;52.788;41.368;2022-09-30T07:03:31;99585.81;;;16.81;56.03
65384;BME280;51986;52.788;41.368;2022-09-30T07:06:02;99588.25;;;16.75;56.36
65384;BME280;51986;52.788;41.368;2022-09-30T07:08:32;99613.63;;;17.31;54.76
65384;BME280;51986;52.788;41.368;2022-09-30T07:11:01;99590.91;;;17.39;54.24
65384;BME280;51986;52.788;41.368;2022-09-30T07:13:28;99577.75;;;17.44;53.82
65384;BME280;51986;52.788;41.368;2022-09-30T07:15:55;99572.81;;;17.56;54.35
65384;BME280;51986;52.788;41.368;2022-09-30T07:18:23;99599.53;;;17.43;53.72
65384;BME280;51986;52.788;41.368;2022-09-30T07:20:51;99613.78;;;17.84;53.98
65384;BME280;51986;52.788;41.368;2022-09-30T07:23:20;99619.38;;;17.98;53.41
65384;BME280;51986;52.788;41.368;2022-09-30T07:25:57;99624.78;;;18.20;52.54
65384;BME280;51986;52.788;41.368;2022-09-30T07:28:25;99609.47;;;17.99;51.60
65384;BME280;51986;52.788;41.368;2022-09-30T07:30:53;99615.06;;;17.92;51.73
65384;BME280;51986;52.788;41.368;2022-09-30T07:33:41;99600.34;;;17.87;51.45
65384;BME280;51986;52.788;41.368;2022-09-30T07:36:08;99591.41;;;18.03;52.04
65384;BME280;51986;52.788;41.368;2022-09-30T07:38:39;99586.38;;;18.05;52.28
65384;BME280;51986;52.788;41.368;2022-09-30T07:41:12;99591.41;;;18.03;51.48
65384;BME280;51986;52.788;41.368;2022-09-30T07:43:43;99591.59;;;17.87;51.96
65384;BME280;51986;52.788;41.368;2022-09-30T07:46:12;99600.50;;;17.71;51.84
65384;BME280;51986;52.788;41.368;2022-09-30T07:48:41;99622.53;;;17.62;51.98
65384;BME280;51986;52.788;41.368;2022-09-30T07:53:44;99606.22;;;17.82;51.16
65384;BME280;51986;52.788;41.368;2022-09-30T07:56:13;99601.25;;;17.71;51.40
65384;BME280;51986;52.788;41.368;2022-09-30T07:58:40;99597.25;;;17.54;50.88
65384;BME280;51986;52.788;41.368;2022-09-30T08:01:07;99611.13;;;17.84;50.98
65384;BME280;51986;52.788;41.368;2022-09-30T08:03:37;99611.09;;;18.18;50.58
65384;BME280;51986;52.788;41.368;2022-09-30T08:06:15;99589.41;;;17.94;52.14
65384;BME280;51986;52.788;41.368;2022-09-30T08:08:44;99594.31;;;17.74;52.08
65384;BME280;51986;52.788;41.368;2022-09-30T08:11:12;99600.16;;;17.82;51.74
65384;BME280;51986;52.788;41.368;2022-09-30T08:13:40;99610.09;;;18.03;51.28
65384;BME280;51986;52.788;41.368;2022-09-30T08:16:08;99607.00;;;18.05;50.71
65384;BME280;51986;52.788;41.368;2022-09-30T08:18:35;99605.22;;;17.89;51.89
65384;BME280;51986;52.788;41.368;2022-09-30T08:21:03;99601.63;;;17.83;51.61
65384;BME280;51986;52.788;41.368;2022-09-30T08:23:30;99597.66;;;17.87;51.32
65384;BME280;51986;52.788;41.368;2022-09-30T08:26:06;99608.78;;;17.86;51.32
65384;BME280;51986;52.788;41.368;2022-09-30T08:28:34;99593.44;;;17.77;51.13
65384;BME280;51986;52.788;41.368;2022-09-30T08:31:10;99571.59;;;17.69;51.81
65384;BME280;51986;52.788;41.368;2022-09-30T08:33:38;99602.31;;;17.74;51.76
65384;BME280;51986;52.788;41.368;2022-09-30T08:36:11;99608.16;;;17.82;51.80
65384;BME280;51986;52.788;41.368;2022-09-30T08:38:38;99605.38;;;18.07;51.76
65384;BME280;51986;52.788;41.368;2022-09-30T08:46:49;99588.94;;;18.31;50.65
65384;BME280;51986;52.788;41.368;2022-09-30T08:52:01;99583.31;;;18.69;48.61
65384;BME280;51986;52.788;41.368;2022-09-30T08:54:33;99589.25;;;18.64;47.21
65384;BME280;51986;52.788;41.368;2022-09-30T08:57:05;99599.84;;;18.77;47.04
65384;BME280;51986;52.788;41.368;2022-09-30T08:59:45;99584.44;;;18.90;47.16
65384;BME280;51986;52.788;41.368;2022-09-30T09:02:32;99572.72;;;18.87;47.16
65384;BME280;51986;52.788;41.368;2022-09-30T09:05:03;99553.00;;;19.03;47.33
65384;BME280;51986;52.788;41.368;2022-09-30T09:10:39;99557.09;;;18.77;47.45
65384;BME280;51986;52.788;41.368;2022-09-30T09:18:40;99573.69;;;18.71;46.85
65384;BME280;51986;52.788;41.368;2022-09-30T09:21:20;99574.41;;;19.03;46.70
65384;BME280;51986;52.788;41.368;2022-09-30T09:23:50;99574.03;;;18.83;45.72
65384;BME280;51986;52.788;41.368;2022-09-30T09:26:18;99573.84;;;18.68;46.58
65384;BME280;51986;52.788;41.368;2022-09-30T09:31:31;99565.50;;;19.06;46.84
65384;BME280;51986;52.788;41.368;2022-09-30T09:34:09;99578.88;;;19.06;46.39
65384;BME280;51986;52.788;41.368;2022-09-30T09:45:05;99570.47;;;18.95;46.86
65384;BME280;51986;52.788;41.368;2022-09-30T09:47:36;99568.56;;;18.55;47.09
65384;BME280;51986;52.788;41.368;2022-09-30T09:50:11;99574.75;;;18.74;47.17
65384;BME280;51986;52.788;41.368;2022-09-30T09:58:16;99570.44;;;19.17;46.57
65384;BME280;51986;52.788;41.368;2022-09-30T10:00:43;99564.34;;;19.25;46.25
65384;BME280;51986;52.788;41.368;2022-09-30T10:03:16;99566.16;;;19.74;45.60
65384;BME280;51986;52.788;41.368;2022-09-30T10:08:51;99573.13;;;20.09;44.46
65384;BME280;51986;52.788;41.368;2022-09-30T10:11:24;99551.81;;;20.14;42.83
65384;BME280;51986;52.788;41.368;2022-09-30T10:13:56;99552.13;;;20.16;44.29
65384;BME280;51986;52.788;41.368;2022-09-30T10:16:35;99569.97;;;20.10;43.98
65384;BME280;51986;52.788;41.368;2022-09-30T10:19:04;99574.53;;;20.37;43.05
65384;BME280;51986;52.788;41.368;2022-09-30T10:24:38;99569.84;;;20.65;42.94
65384;BME280;51986;52.788;41.368;2022-09-30T10:27:30;99565.72;;;20.46;43.31
65384;BME280;51986;52.788;41.368;2022-09-30T10:29:57;99556.22;;;20.45;42.03
65384;BME280;51986;52.788;41.368;2022-09-30T10:32:28;99553.75;;;20.65;42.70
65384;BME280;51986;52.788;41.368;2022-09-30T10:35:21;99538.69;;;20.68;42.21
65384;BME280;51986;52.788;41.368;2022-09-30T10:37:53;99551.09;;;20.56;42.54
65384;BME280;51986;52.788;41.368;2022-09-30T10:40:25;99546.97;;;19.94;42.71
65384;BME280;51986;52.788;41.368;2022-09-30T10:42:54;99550.69;;;19.88;42.28
65384;BME280;51986;52.788;41.368;2022-09-30T10:45:32;99547.84;;;20.00;41.24
65384;BME280;51986;52.788;41.368;2022-09-30T10:48:05;99537.09;;;20.10;41.34
65384;BME280;51986;52.788;41.368;2022-09-30T10:50:38;99553.47;;;20.12;40.97
65384;BME280;51986;52.788;41.368;2022-09-30T10:53:16;99536.66;;;20.20;41.53
65384;BME280;51986;52.788;41.368;2022-09-30T10:55:46;99554.25;;;20.03;42.17
65384;BME280;51986;52.788;41.368;2022-09-30T11:01:11;99550.47;;;20.19;41.85
65384;BME280;51986;52.788;41.368;2022-09-30T11:04:20;99539.16;;;20.24;41.36
65384;BME280;51986;52.788;41.368;2022-09-30T11:06:51;99541.81;;;20.24;41.03
65384;BME280;51986;52.788;41.368;2022-09-30T11:09:31;99532.03;;;20.21;41.52
65384;BME280;51986;52.788;41.368;2022-09-30T11:12:25;99530.13;;;20.12;41.26
65384;BME280;51986;52.788;41.368;2022-09-30T11:15:00;99519.25;;;20.16;41.15
65384;BME280;51986;52.788;41.368;2022-09-30T11:17:39;99515.72;;;20.43;41.54
65384;BME280;51986;52.788;41.368;2022-09-30T11:20:20;99515.06;;;20.57;40.69
65384;BME280;51986;52.788;41.368;2022-09-30T11:23:13;99500.31;;;20.62;40.74
65384;BME280;51986;52.788;41.368;2022-09-30T11:25:51;99506.50;;;20.77;40.74
65384;BME280;51986;52.788;41.368;2022-09-30T11:42:16;99506.38;;;20.29;41.12
65384;BME280;51986;52.788;41.368;2022-09-30T11:44:45;99517.56;;;20.27;40.84
65384;BME280;51986;52.788;41.368;2022-09-30T11:58:27;99524.81;;;19.85;42.56
65384;BME280;51986;52.788;41.368;2022-09-30T12:01:32;99537.75;;;19.68;42.62
65384;BME280;51986;52.788;41.368;2022-09-30T12:04:06;99524.81;;;19.75;42.63
65384;BME280;51986;52.788;41.368;2022-09-30T12:06:41;99533.44;;;19.61;42.87
65384;BME280;51986;52.788;41.368;2022-09-30T12:12:07;99530.75;;;19.52;42.54
65384;BME280;51986;52.788;41.368;2022-09-30T12:14:56;99546.53;;;19.59;42.37
65384;BME280;51986;52.788;41.368;2022-09-30T12:17:31;99536.56;;;19.60;42.98
65384;BME280;51986;52.788;41.368;2022-09-30T12:20:36;99533.28;;;19.74;42.53
65384;BME280;51986;52.788;41.368;2022-09-30T12:23:17;99544.59;;;19.60;43.23
65384;BME280;51986;52.788;41.368;2022-09-30T12:25:55;99531.97;;;19.60;42.87
65384;BME280;51986;52.788;41.368;2022-09-30T12:50:52;99546.22;;;19.57;44.16
65384;BME280;51986;52.788;41.368;2022-09-30T12:53:35;99530.75;;;19.43;44.12
65384;BME280;51986;52.788;41.368;2022-09-30T12:56:10;99534.78;;;19.57;44.10
65384;BME280;51986;52.788;41.368;2022-09-30T12:58:50;99533.16;;;19.68;43.94
65384;BME280;51986;52.788;41.368;2022-09-30T13:01:23;99534.91;;;19.71;43.97
65384;BME280;51986;52.788;41.368;2022-09-30T13:06:26;99535.81;;;19.68;44.58
65384;BME280;51986;52.788;41.368;2022-09-30T13:11:37;99558.25;;;19.62;44.77
65384;BME280;51986;52.788;41.368;2022-09-30T13:27:34;99544.88;;;19.07;46.42
65384;BME280;51986;52.788;41.368;2022-09-30T13:40:56;99579.69;;;18.94;46.64
65384;BME280;51986;52.788;41.368;2022-09-30T13:43:42;99563.03;;;18.81;47.13
65384;BME280;51986;52.788;41.368;2022-09-30T13:49:02;99576.63;;;18.64;47.17
65384;BME280;51986;52.788;41.368;2022-09-30T13:51:35;99571.00;;;18.62;47.32
65384;BME280;51986;52.788;41.368;2022-09-30T13:56:43;99604.03;;;18.56;48.18
65384;BME280;51986;52.788;41.368;2022-09-30T14:07:53;99595.47;;;18.30;50.30
65384;BME280;51986;52.788;41.368;2022-09-30T14:13:30;99577.47;;;18.21;50.61
65384;BME280;51986;52.788;41.368;2022-09-30T14:16:05;99591.03;;;18.14;51.09
65384;BME280;51986;52.788;41.368;2022-09-30T14:24:15;99596.56;;;17.97;52.14
65384;BME280;51986;52.788;41.368;2022-09-30T14:35:07;99580.66;;;17.72;52.72
65384;BME280;51986;52.788;41.368;2022-09-30T14:37:45;99595.47;;;17.73;53.75
65384;BME280;51986;52.788;41.368;2022-09-30T14:40:19;99600.38;;;17.75;53.48
65384;BME280;51986;52.788;41.368;2022-09-30T14:42:50;99575.66;;;17.61;53.70
65384;BME280;51986;52.788;41.368;2022-09-30T14:45:31;99585.84;;;17.76;54.49
65384;BME280;51986;52.788;41.368;2022-09-30T14:48:10;99568.94;;;17.57;54.76
65384;BME280;51986;52.788;41.368;2022-09-30T14:53:50;99611.31;;;17.67;54.52
65384;BME280;51986;52.788;41.368;2022-09-30T14:56:27;99595.97;;;17.59;55.42
65384;BME280;51986;52.788;41.368;2022-09-30T14:58:56;99583.72;;;17.49;55.11
65384;BME280;51986;52.788;41.368;2022-09-30T15:01:27;99606.19;;;17.60;55.54
65384;BME280;51986;52.788;41.368;2022-09-30T15:04:02;99587.34;;;17.42;55.25
65384;BME280;51986;52.788;41.368;2022-09-30T15:06:49;99611.22;;;17.58;55.18
65384;BME280;51986;52.788;41.368;2022-09-30T15:09:25;99594.94;;;17.43;56.15
65384;BME280;51986;52.788;41.368;2022-09-30T15:11:53;99595.59;;;17.35;55.95
65384;BME280;51986;52.788;41.368;2022-09-30T15:14:22;99574.38;;;17.31;56.16
65384;BME280;51986;52.788;41.368;2022-09-30T15:16:53;99603.25;;;17.33;56.57
65384;BME280;51986;52.788;41.368;2022-09-30T15:19:48;99608.28;;;17.43;56.61
65384;BME280;51986;52.788;41.368;2022-09-30T15:25:11;99611.47;;;17.38;56.30
65384;BME280;51986;52.788;41.368;2022-09-30T15:28:14;99594.84;;;17.34;56.56
65384;BME280;51986;52.788;41.368;2022-09-30T15:30:44;99582.78;;;17.17;57.07
65384;BME280;51986;52.788;41.368;2022-09-30T15:33:16;99604.75;;;17.08;57.67
65384;BME280;51986;52.788;41.368;2022-09-30T15:35:44;99610.63;;;17.16;56.88
65384;BME280;51986;52.788;41.368;2022-09-30T15:38:24;99597.00;;;17.14;57.50
65384;BME280;51986;52.788;41.368;2022-09-30T15:41:07;99620.53;;;17.15;57.67
65384;BME280;51986;52.788;41.368;2022-09-30T15:43:44;99596.66;;;16.99;57.41
65384;BME280;51986;52.788;41.368;2022-09-30T15:46:17;99615.09;;;17.06;57.71
65384;BME280;51986;52.788;41.368;2022-09-30T15:48:46;99607.66;;;17.01;57.59
65384;BME280;51986;52.788;41.368;2022-09-30T15:54:33;99612.97;;;17.01;57.31
65384;BME280;51986;52.788;41.368;2022-09-30T15:57:14;99613.53;;;16.96;58.16
65384;BME280;51986;52.788;41.368;2022-09-30T16:00:02;99585.06;;;16.93;58.02
65384;BME280;51986;52.788;41.368;2022-09-30T16:02:30;99587.81;;;16.89;57.67
65384;BME280;51986;52.788;41.368;2022-09-30T16:04:58;99586.44;;;16.85;57.80
65384;BME280;51986;52.788;41.368;2022-09-30T16:07:28;99585.16;;;16.77;57.94
65384;BME280;51986;52.788;41.368;2022-09-30T16:09:57;99582.19;;;16.87;58.18
65384;BME280;51986;52.788;41.368;2022-09-30T16:12:30;99575.56;;;16.92;58.23
65384;BME280;51986;52.788;41.368;2022-09-30T16:15:11;99587.50;;;16.87;58.55
65384;BME280;51986;52.788;41.368;2022-09-30T16:17:44;99584.00;;;16.90;58.32
65384;BME280;51986;52.788;41.368;2022-09-30T16:25:25;99588.06;;;16.95;58.35
65384;BME280;51986;52.788;41.368;2022-09-30T16:28:08;99595.50;;;16.87;59.11
65384;BME280;51986;52.788;41.368;2022-09-30T16:30:45;99590.59;;;16.86;58.52
65384;BME280;51986;52.788;41.368;2022-09-30T16:33:20;99610.00;;;16.74;59.48
65384;BME280;51986;52.788;41.368;2022-09-30T16:35:52;99579.09;;;16.76;58.93
65384;BME280;51986;52.788;41.368;2022-09-30T16:38:22;99597.81;;;16.60;59.77
65384;BME280;51986;52.788;41.368;2022-09-30T16:40:50;99585.25;;;16.48;59.53
65384;BME280;51986;52.788;41.368;2022-09-30T16:43:17;99599.22;;;16.64;60.03
65384;BME280;51986;52.788;41.368;2022-09-30T16:45:45;99589.72;;;16.51;60.29
65384;BME280;51986;52.788;41.368;2022-09-30T16:48:14;99584.63;;;16.56;60.39
65384;BME280;51986;52.788;41.368;2022-09-30T16:53:18;99578.31;;;16.50;60.44
65384;BME280;51986;52.788;41.368;2022-09-30T16:55:45;99583.31;;;16.35;60.58
65384;BME280;51986;52.788;41.368;2022-09-30T16:58:33;99575.00;;;16.33;61.44
65384;BME280;51986;52.788;41.368;2022-09-30T17:01:00;99586.94;;;16.41;60.72
65384;BME280;51986;52.788;41.368;2022-09-30T17:03:31;99579.81;;;16.38;60.97
65384;BME280;51986;52.788;41.368;2022-09-30T17:05:59;99593.31;;;16.31;61.11
65384;BME280;51986;52.788;41.368;2022-09-30T17:08:26;99581.00;;;16.37;60.61
65384;BME280;51986;52.788;41.368;2022-09-30T17:10:53;99589.75;;;16.22;61.55